Time;durP1;ratioP1;P1;durP2;ratioP2;P2;SDS_P1;SDS_P2;PMS_P1;PMS_P2;Temp;Humidity;BMP_temperature;BMP_pressure;BME280_temperature;BME280_humidity;BME280_pressure;Samples;Min_cycle;Max_cycle;Signal;HPM_P1;HPM_P2
2022/02/24 00:01:02;;;;;;;1999.90;999.90;;;;;;;0.75;51.11;101532.00;5018775;27;97095;-70
2022/02/24 00:03:32;;;;;;;1999.90;999.90;;;;;;;0.70;51.05;101525.53;5020612;28;98646;-71
2022/02/24 00:06:02;;;;;;;1999.90;999.90;;;;;;;0.69;50.72;101532.47;5022548;28;98864;-73
2022/02/24 00:08:30;;;;;;;1999.90;999.90;;;;;;;0.66;50.90;101531.34;5001734;28;98861;-73
2022/02/24 00:10:58;;;;;;;1999.90;999.90;;;;;;;0.60;51.07;101528.28;5006433;28;96962;-73
2022/02/24 00:13:26;;;;;;;1999.90;999.90;;;;;;;0.56;51.13;101523.66;5020016;27;99197;-73
2022/02/24 00:15:55;;;;;;;1999.90;999.90;;;;;;;0.54;51.09;101525.25;5022247;28;97812;-73
2022/02/24 00:18:23;;;;;;;1999.90;999.90;;;;;;;0.52;51.48;101527.72;5019579;28;96824;-72
2022/02/24 00:20:50;;;;;;;1999.90;999.90;;;;;;;0.51;51.17;101520.69;5020025;28;97764;-72
2022/02/24 00:23:18;;;;;;;1999.90;999.90;;;;;;;0.47;51.43;101510.78;5018640;28;99309;-72
2022/02/24 00:25:46;;;;;;;1999.90;999.90;;;;;;;0.44;51.43;101507.94;5019637;28;96646;-72
2022/02/24 00:28:13;;;;;;;1999.90;999.90;;;;;;;0.96;49.97;101495.16;5022372;27;96759;-72
2022/02/24 00:30:41;;;;;;;1999.90;999.90;;;;;;;0.65;50.67;101499.00;5023283;28;97508;-74
2022/02/24 00:33:11;;;;;;;1999.90;999.90;;;;;;;0.54;50.97;101493.81;5024021;28;98799;-70
2022/02/24 00:35:38;;;;;;;1999.90;999.90;;;;;;;0.48;51.17;101498.59;5019652;28;99081;-72
2022/02/24 00:38:06;;;;;;;1999.90;999.90;;;;;;;0.45;51.44;101488.81;5025511;27;97164;-71
2022/02/24 00:40:34;;;;;;;1999.90;999.90;;;;;;;0.41;51.44;101485.88;5024724;28;96876;-73
2022/02/24 00:43:01;;;;;;;1999.90;999.90;;;;;;;0.36;51.50;101482.00;5024961;28;97843;-72
2022/02/24 00:45:30;;;;;;;1999.90;999.90;;;;;;;0.35;51.51;101477.56;5022068;28;97894;-72
2022/02/24 00:47:57;;;;;;;1999.90;999.90;;;;;;;0.35;51.55;101470.63;5024153;27;97519;-70
2022/02/24 00:50:26;;;;;;;1999.90;999.90;;;;;;;0.31;51.41;101472.88;5022347;28;97466;-70
2022/02/24 00:52:56;;;;;;;1999.90;999.90;;;;;;;0.29;51.69;101477.09;5024566;28;99235;-73
2022/02/24 00:55:25;;;;;;;1999.90;999.90;;;;;;;0.27;51.65;101465.59;5025301;28;99167;-73
2022/02/24 00:57:53;;;;;;;1999.90;999.90;;;;;;;0.23;51.81;101462.75;5026037;28;96898;-72
2022/02/24 01:00:21;;;;;;;1999.90;999.90;;;;;;;0.25;51.63;101467.22;5023183;28;97024;-72
2022/02/24 01:02:49;;;;;;;1999.90;999.90;;;;;;;0.77;50.25;101451.84;5020026;28;98903;-72
2022/02/24 01:05:17;;;;;;;1999.90;999.90;;;;;;;0.47;51.19;101447.00;5024536;28;99289;-71
2022/02/24 01:07:46;;;;;;;1999.90;999.90;;;;;;;0.39;51.43;101446.50;5022861;27;98025;-73
2022/02/24 01:10:14;;;;;;;1999.90;999.90;;;;;;;0.34;51.26;101436.50;5026087;27;97378;-73
2022/02/24 01:12:42;;;;;;;1999.90;999.90;;;;;;;0.29;51.58;101440.47;5020684;28;97603;-72
2022/02/24 01:15:11;;;;;;;1999.90;999.90;;;;;;;0.27;51.58;101435.13;5019564;28;98805;-74
2022/02/24 01:17:40;;;;;;;1999.90;999.90;;;;;;;0.25;51.26;101430.59;5023726;28;97539;-72
2022/02/24 01:20:09;;;;;;;1999.90;999.90;;;;;;;0.23;51.39;101428.72;5022905;28;98101;-72
2022/02/24 01:22:37;;;;;;;1999.90;999.90;;;;;;;0.20;51.75;101419.75;5023355;27;99306;-71
2022/02/24 01:25:06;;;;;;;1999.90;999.90;;;;;;;0.17;51.58;101409.94;5024696;28;97531;-70
2022/02/24 01:27:34;;;;;;;1999.90;999.90;;;;;;;0.15;51.91;101408.97;5006808;28;96819;-74
2022/02/24 01:30:02;;;;;;;1999.90;999.90;;;;;;;0.65;50.52;101390.75;5022293;28;97308;-73
2022/02/24 01:32:30;;;;;;;1999.90;999.90;;;;;;;0.33;51.09;101403.25;5023048;27;99392;-72
2022/02/24 01:35:00;;;;;;;1999.90;999.90;;;;;;;0.24;51.60;101395.66;5021422;27;99890;-73
2022/02/24 01:37:28;;;;;;;1999.90;999.90;;;;;;;0.17;51.46;101390.75;5024122;28;97749;-73
2022/02/24 01:39:56;;;;;;;1999.90;999.90;;;;;;;0.15;51.57;101384.50;5024179;28;99365;-72
2022/02/24 01:42:29;;;;;;;1999.90;999.90;;;;;;;0.09;51.59;101381.41;5023708;28;99173;-73
2022/02/24 01:44:57;;;;;;;1999.90;999.90;;;;;;;0.08;51.54;101375.28;5023632;28;97862;-71
2022/02/24 01:47:24;;;;;;;1999.90;999.90;;;;;;;0.08;51.80;101364.81;5024891;28;97042;-72
2022/02/24 01:49:52;;;;;;;1999.90;999.90;;;;;;;0.05;51.71;101371.53;5024205;28;97122;-74
2022/02/24 01:52:20;;;;;;;1999.90;999.90;;;;;;;0.03;51.80;101355.72;5020539;27;100398;-73
2022/02/24 01:54:49;;;;;;;1999.90;999.90;;;;;;;0.01;51.84;101352.09;5023730;28;99226;-73
2022/02/24 01:57:18;;;;;;;1999.90;999.90;;;;;;;-0.01;51.83;101356.28;5022250;28;96894;-73
2022/02/24 01:59:47;;;;;;;1999.90;999.90;;;;;;;-0.01;51.78;101352.78;5023506;28;97949;-72
2022/02/24 02:02:15;;;;;;;1999.90;999.90;;;;;;;-0.00;51.94;101351.97;5023285;27;97805;-73
2022/02/24 02:04:44;;;;;;;1999.90;999.90;;;;;;;-0.03;51.69;101347.41;5020927;28;99579;-74
2022/02/24 02:07:12;;;;;;;1999.90;999.90;;;;;;;-0.07;52.10;101348.03;5020492;27;97628;-71
2022/02/24 02:09:40;;;;;;;1999.90;999.90;;;;;;;-0.08;52.00;101346.19;5022170;28;98372;-71
2022/02/24 02:12:08;;;;;;;1999.90;999.90;;;;;;;-0.09;51.89;101333.00;5022616;28;99265;-72
2022/02/24 02:14:37;;;;;;;1999.90;999.90;;;;;;;-0.12;52.20;101331.06;5022040;28;100437;-72
2022/02/24 02:17:06;;;;;;;1999.90;999.90;;;;;;;-0.07;52.04;101327.09;5023907;28;98046;-72
2022/02/24 02:19:36;;;;;;;1999.90;999.90;;;;;;;-0.13;52.21;101325.72;5023037;28;97783;-70
2022/02/24 02:22:05;;;;;;;1999.90;999.90;;;;;;;-0.20;51.90;101337.47;5021861;28;98862;-72
2022/02/24 02:24:37;;;;;;;1999.90;999.90;;;;;;;0.33;50.61;101316.88;5020661;27;99090;-72
2022/02/24 02:27:04;;;;;;;1999.90;999.90;;;;;;;-0.04;51.78;101310.69;5024082;28;97956;-72
2022/02/24 02:29:33;;;;;;;1999.90;999.90;;;;;;;0.43;50.72;101306.25;5021359;28;97588;-73
2022/02/24 02:32:00;;;;;;;1999.90;999.90;;;;;;;0.06;51.36;101311.47;5025074;28;97626;-72
2022/02/24 02:34:28;;;;;;;1999.90;999.90;;;;;;;-0.05;51.82;101298.44;5021324;28;97639;-73
2022/02/24 02:36:56;;;;;;;1999.90;999.90;;;;;;;-0.09;51.88;101299.91;5022541;28;97983;-72
2022/02/24 02:39:25;;;;;;;1999.90;999.90;;;;;;;-0.11;52.02;101303.22;5021807;28;97665;-74
2022/02/24 02:41:53;;;;;;;1999.90;999.90;;;;;;;-0.13;52.02;101300.50;5022991;28;99379;-70
2022/02/24 02:44:20;;;;;;;1999.90;999.90;;;;;;;-0.13;52.01;101297.88;5024001;27;97913;-73
2022/02/24 02:46:48;;;;;;;1999.90;999.90;;;;;;;-0.16;52.04;101305.53;5022135;27;97571;-72
2022/02/24 02:49:16;;;;;;;1999.90;999.90;;;;;;;-0.19;52.06;101288.69;5023362;28;96794;-72
2022/02/24 02:51:44;;;;;;;1999.90;999.90;;;;;;;-0.22;52.09;101281.53;5021546;27;99864;-71
2022/02/24 02:54:12;;;;;;;1999.90;999.90;;;;;;;-0.21;52.16;101285.94;5021100;28;101610;-73
2022/02/24 02:56:41;;;;;;;1999.90;999.90;;;;;;;-0.22;52.18;101284.16;5022957;28;96790;-72
2022/02/24 02:59:08;;;;;;;1999.90;999.90;;;;;;;-0.23;52.28;101277.06;5023262;28;97682;-70
2022/02/24 03:01:36;;;;;;;1999.90;999.90;;;;;;;-0.23;52.52;101266.63;5019204;28;99386;-72
2022/02/24 03:04:04;;;;;;;1999.90;999.90;;;;;;;-0.24;52.30;101262.22;5020940;27;98610;-73
2022/02/24 03:06:32;;;;;;;1999.90;999.90;;;;;;;-0.22;52.39;101268.44;5022077;28;97218;-73
2022/02/24 03:09:00;;;;;;;1999.90;999.90;;;;;;;-0.24;52.61;101259.59;5036966;27;98371;-72
2022/02/24 03:11:28;;;;;;;1999.90;999.90;;;;;;;-0.25;52.25;101257.78;5021248;28;98689;-73
2022/02/24 03:13:57;;;;;;;1999.90;999.90;;;;;;;-0.26;52.36;101255.94;5020455;27;97759;-73
2022/02/24 03:16:25;;;;;;;1999.90;999.90;;;;;;;-0.27;52.60;101245.38;5022290;28;96883;-75
2022/02/24 03:18:52;;;;;;;1999.90;999.90;;;;;;;-0.25;52.49;101246.41;5023873;27;97587;-74
2022/02/24 03:21:20;;;;;;;1999.90;999.90;;;;;;;-0.28;52.21;101240.97;5021668;27;98286;-73
2022/02/24 03:23:49;;;;;;;1999.90;999.90;;;;;;;-0.31;52.60;101240.72;5021649;28;97892;-74
2022/02/24 03:26:16;;;;;;;1999.90;999.90;;;;;;;-0.36;52.79;101234.28;5023326;28;97225;-72
2022/02/24 03:28:44;;;;;;;1999.90;999.90;;;;;;;-0.39;52.83;101227.09;5021385;28;97887;-74
2022/02/24 03:31:13;;;;;;;1999.90;999.90;;;;;;;-0.42;52.49;101232.13;5023548;27;98868;-71
2022/02/24 03:33:41;;;;;;;1999.90;999.90;;;;;;;-0.46;52.85;101234.41;5022612;28;98478;-73
2022/02/24 03:36:09;;;;;;;1999.90;999.90;;;;;;;-0.48;52.95;101216.00;5022030;27;97175;-71
2022/02/24 03:38:36;;;;;;;1999.90;999.90;;;;;;;-0.49;52.54;101219.41;5022720;27;97536;-70
2022/02/24 03:41:04;;;;;;;1999.90;999.90;;;;;;;-0.49;52.88;101235.09;5022477;27;96965;-72
2022/02/24 03:43:32;;;;;;;1999.90;999.90;;;;;;;-0.50;52.70;101228.03;5021218;27;99226;-73
2022/02/24 03:45:59;;;;;;;1999.90;999.90;;;;;;;-0.46;52.92;101219.63;5025544;27;97554;-73
2022/02/24 03:48:29;;;;;;;1999.90;999.90;;;;;;;0.05;51.87;101222.41;5021005;28;97776;-71
2022/02/24 03:50:59;;;;;;;1999.90;999.90;;;;;;;-0.25;52.44;101207.19;5022117;28;100574;-71
2022/02/24 03:53:27;;;;;;;1999.90;999.90;;;;;;;-0.32;52.57;101207.56;5019854;28;99288;-72
2022/02/24 03:55:54;;;;;;;1999.90;999.90;;;;;;;-0.34;52.94;101209.16;5022614;28;97311;-71
2022/02/24 03:58:22;;;;;;;1999.90;999.90;;;;;;;-0.34;52.76;101198.69;5019729;28;97444;-71
2022/02/24 04:00:50;;;;;;;1999.90;999.90;;;;;;;-0.33;52.57;101203.09;5016830;27;98325;-71
2022/02/24 04:03:20;;;;;;;1999.90;999.90;;;;;;;-0.33;52.66;101201.41;5018581;27;97638;-72
2022/02/24 04:05:50;;;;;;;1999.90;999.90;;;;;;;-0.34;52.67;101193.47;5018395;28;96850;-73
2022/02/24 04:08:18;;;;;;;1999.90;999.90;;;;;;;-0.32;52.88;101182.28;5020807;28;97605;-72
2022/02/24 04:10:46;;;;;;;1999.90;999.90;;;;;;;-0.32;52.69;101182.28;5021309;28;100517;-71
2022/02/24 04:13:14;;;;;;;1999.90;999.90;;;;;;;-0.31;53.22;101178.91;5024400;27;101762;-71
2022/02/24 04:15:41;;;;;;;1999.90;999.90;;;;;;;-0.29;52.80;101177.31;5026468;28;96745;-70
2022/02/24 04:18:09;;;;;;;1999.90;999.90;;;;;;;0.23;51.97;101178.31;5023132;27;97598;-71
2022/02/24 04:20:37;;;;;;;1999.90;999.90;;;;;;;-0.02;52.31;101162.63;5022582;28;99164;-71
2022/02/24 04:23:06;;;;;;;1999.90;999.90;;;;;;;-0.07;52.54;101162.31;5025257;27;99330;-72
2022/02/24 04:25:34;;;;;;;1999.90;999.90;;;;;;;-0.08;52.59;101155.25;5024496;28;96836;-69
2022/02/24 04:28:01;;;;;;;1999.90;999.90;;;;;;;-0.10;52.61;101154.25;5024940;27;98137;-71
2022/02/24 04:30:29;;;;;;;1999.90;999.90;;;;;;;-0.10;52.58;101148.13;5006190;28;99102;-70
2022/02/24 04:32:57;;;;;;;1999.90;999.90;;;;;;;-0.14;52.53;101152.25;5025018;27;100331;-71
2022/02/24 04:35:25;;;;;;;1999.90;999.90;;;;;;;-0.18;52.67;101150.19;5041290;27;97347;-74
2022/02/24 04:37:56;;;;;;;1999.90;999.90;;;;;;;-0.20;52.83;101145.66;5027103;28;96697;-72
2022/02/24 04:40:25;;;;;;;1999.90;999.90;;;;;;;-0.21;52.57;101149.09;5023906;28;97999;-72
2022/02/24 04:42:52;;;;;;;1999.90;999.90;;;;;;;-0.23;52.54;101129.75;5005741;28;99777;-71
2022/02/24 04:45:20;;;;;;;1999.90;999.90;;;;;;;-0.23;52.49;101135.00;5027796;28;97714;-69
2022/02/24 04:47:48;;;;;;;1999.90;999.90;;;;;;;-0.23;52.69;101127.16;5022333;28;97420;-72
2022/02/24 04:50:16;;;;;;;1999.90;999.90;;;;;;;-0.24;53.04;101123.63;5024140;28;97804;-73
2022/02/24 04:52:43;;;;;;;1999.90;999.90;;;;;;;-0.23;52.97;101120.19;5025110;27;97643;-72
2022/02/24 04:55:11;;;;;;;1999.90;999.90;;;;;;;-0.21;52.99;101115.97;5024817;28;97811;-71
2022/02/24 04:57:40;;;;;;;1999.90;999.90;;;;;;;-0.21;52.79;101115.09;5023573;27;98148;-74
2022/02/24 05:00:10;;;;;;;1999.90;999.90;;;;;;;-0.20;52.93;101109.97;5024761;27;97662;-73
2022/02/24 05:02:38;;;;;;;1999.90;999.90;;;;;;;0.30;51.50;101112.53;5016132;27;100042;-72
2022/02/24 05:05:06;;;;;;;1999.90;999.90;;;;;;;0.04;52.27;101106.41;5024081;27;98937;-73
2022/02/24 05:07:34;;;;;;;1999.90;999.90;;;;;;;-0.04;52.61;101109.28;5020874;28;96777;-74
2022/02/24 05:10:03;;;;;;;1999.90;999.90;;;;;;;0.44;51.33;101103.88;5022096;27;97845;-71
2022/02/24 05:12:30;;;;;;;1999.90;999.90;;;;;;;0.69;50.85;101104.69;5018829;27;100540;-72
2022/02/24 05:14:59;;;;;;;1999.90;999.90;;;;;;;0.32;51.76;101100.44;5021654;27;96912;-73
2022/02/24 05:17:27;;;;;;;1999.90;999.90;;;;;;;0.21;52.13;101104.94;5015301;28;99189;-73
2022/02/24 05:19:55;;;;;;;1999.90;999.90;;;;;;;0.15;52.64;101102.81;5024710;28;97537;-74
2022/02/24 05:22:24;;;;;;;1999.90;999.90;;;;;;;0.09;52.40;101094.53;5020525;28;100469;-72
2022/02/24 05:24:52;;;;;;;1999.90;999.90;;;;;;;0.07;52.24;101090.00;5025124;28;98381;-73
2022/02/24 05:27:20;;;;;;;1999.90;999.90;;;;;;;0.06;52.64;101081.22;5015595;28;99972;-73
2022/02/24 05:29:48;;;;;;;1999.90;999.90;;;;;;;0.05;52.73;101082.06;5014508;27;100763;-74
2022/02/24 05:32:17;;;;;;;1999.90;999.90;;;;;;;0.03;52.71;101075.81;5018787;28;100643;-73
2022/02/24 05:34:45;;;;;;;1999.90;999.90;;;;;;;0.02;52.56;101076.63;5018026;28;97034;-73
2022/02/24 05:37:13;;;;;;;1999.90;999.90;;;;;;;0.02;52.79;101079.25;5018273;27;96756;-72
2022/02/24 05:39:43;;;;;;;1999.90;999.90;;;;;;;0.04;52.46;101080.25;5017611;28;99542;-74
2022/02/24 05:42:10;;;;;;;1999.90;999.90;;;;;;;0.04;52.64;101080.25;5020886;27;100570;-74
2022/02/24 05:44:38;;;;;;;1999.90;999.90;;;;;;;0.03;52.83;101075.81;5023286;28;97858;-74
2022/02/24 05:47:06;;;;;;;1999.90;999.90;;;;;;;0.03;52.84;101077.50;5025729;28;97849;-76
2022/02/24 05:49:35;;;;;;;1999.90;999.90;;;;;;;0.05;52.87;101074.19;5019041;28;97959;-73
2022/02/24 05:52:03;;;;;;;1999.90;999.90;;;;;;;0.06;52.62;101068.16;5017953;28;98290;-76
2022/02/24 05:54:30;;;;;;;1999.90;999.90;;;;;;;0.08;52.68;101069.16;5012664;27;97901;-73
2022/02/24 05:56:58;;;;;;;1999.90;999.90;;;;;;;0.09;52.72;101059.63;5003856;28;97847;-74
2022/02/24 05:59:26;;;;;;;1999.90;999.90;;;;;;;0.09;52.78;101057.91;5018710;27;98901;-76
2022/02/24 06:01:53;;;;;;;1999.90;999.90;;;;;;;0.10;52.75;101054.47;5016115;28;97957;-74
2022/02/24 06:04:21;;;;;;;1999.90;999.90;;;;;;;0.53;51.81;101052.13;5014623;28;98467;-75
2022/02/24 06:06:51;;;;;;;1999.90;999.90;;;;;;;0.28;52.35;101053.94;5016734;28;97601;-74
2022/02/24 06:09:18;;;;;;;1999.90;999.90;;;;;;;0.18;52.75;101055.91;5022915;28;96945;-74
2022/02/24 06:11:47;;;;;;;1999.90;999.90;;;;;;;0.15;52.40;101047.88;5021789;28;97674;-75
2022/02/24 06:14:15;;;;;;;1999.90;999.90;;;;;;;0.14;52.89;101046.03;5022991;27;97865;-75
2022/02/24 06:16:43;;;;;;;1999.90;999.90;;;;;;;0.16;52.79;101046.13;5020761;27;97726;-74
2022/02/24 06:19:11;;;;;;;1999.90;999.90;;;;;;;0.17;52.69;101051.47;5021427;28;99661;-72
2022/02/24 06:21:39;;;;;;;1999.90;999.90;;;;;;;0.17;52.67;101051.47;5022945;28;100306;-77
2022/02/24 06:24:08;;;;;;;1999.90;999.90;;;;;;;0.18;52.91;101055.91;5023530;28;98001;-75
2022/02/24 06:26:36;;;;;;;1999.90;999.90;;;;;;;0.18;52.83;101050.69;5025027;27;96801;-76
2022/02/24 06:29:04;;;;;;;1999.90;999.90;;;;;;;0.20;52.59;101051.69;5026330;28;97250;-75
2022/02/24 06:31:34;;;;;;;1999.90;999.90;;;;;;;0.23;52.69;101056.19;5027556;28;96766;-75
2022/02/24 06:34:02;;;;;;;1999.90;999.90;;;;;;;0.21;52.83;101047.38;5020007;27;97682;-75
2022/02/24 06:36:30;;;;;;;1999.90;999.90;;;;;;;0.23;52.76;101047.47;5022811;28;97208;-75
2022/02/24 06:38:59;;;;;;;1999.90;999.90;;;;;;;0.26;52.90;101046.00;5025386;27;97744;-75
2022/02/24 06:41:28;;;;;;;1999.90;999.90;;;;;;;0.28;52.49;101041.78;5023931;28;98171;-76
2022/02/24 06:43:58;;;;;;;1999.90;999.90;;;;;;;0.30;52.78;101044.47;5025497;28;98020;-76
2022/02/24 06:46:26;;;;;;;1999.90;999.90;;;;;;;0.34;52.80;101041.28;5024861;27;97711;-75
2022/02/24 06:48:54;;;;;;;1999.90;999.90;;;;;;;0.36;52.87;101032.69;5024886;28;97851;-76
2022/02/24 06:51:21;;;;;;;1999.90;999.90;;;;;;;0.37;52.58;101031.00;5026025;28;97440;-75
2022/02/24 06:53:49;;;;;;;1999.90;999.90;;;;;;;0.38;52.93;101022.31;5027049;27;96775;-75
2022/02/24 06:56:17;;;;;;;1999.90;999.90;;;;;;;0.40;53.06;101024.25;5026526;28;96744;-77
2022/02/24 06:58:46;;;;;;;1999.90;999.90;;;;;;;0.45;52.89;101028.06;5027621;28;98746;-76
2022/02/24 07:01:14;;;;;;;1999.90;999.90;;;;;;;0.85;52.07;101021.06;5023746;27;99248;-76
2022/02/24 07:03:42;;;;;;;1999.90;999.90;;;;;;;0.66;51.93;101013.75;5026085;27;96822;-75
2022/02/24 07:06:10;;;;;;;1999.90;999.90;;;;;;;0.67;52.51;101009.41;5024280;28;97191;-76
2022/02/24 07:08:39;;;;;;;1999.90;999.90;;;;;;;0.66;52.92;101007.59;5025458;28;99319;-76
2022/02/24 07:11:07;;;;;;;1999.90;999.90;;;;;;;0.66;52.59;101013.75;5026469;27;97746;-75
2022/02/24 07:13:34;;;;;;;1999.90;999.90;;;;;;;0.71;52.71;101016.66;5026338;28;97704;-74
2022/02/24 07:16:24;;;;;;;1999.90;999.90;;;;;;;0.72;52.61;101001.03;5024964;28;96896;-75
2022/02/24 07:18:51;;;;;;;1999.90;999.90;;;;;;;0.77;52.64;101002.25;5025021;28;98020;-75
2022/02/24 07:21:19;;;;;;;1999.90;999.90;;;;;;;0.77;52.84;100997.00;5024139;28;99271;-74
2022/02/24 07:23:47;;;;;;;1999.90;999.90;;;;;;;1.14;51.83;100989.75;5024559;27;97061;-75
2022/02/24 07:26:14;;;;;;;1999.90;999.90;;;;;;;0.98;52.09;100976.47;5024659;28;96813;-75
2022/02/24 07:28:43;;;;;;;1999.90;999.90;;;;;;;1.03;52.04;100977.69;5025284;28;99484;-75
2022/02/24 07:31:12;;;;;;;1999.90;999.90;;;;;;;1.08;52.42;100984.13;5024523;28;100500;-74
2022/02/24 07:33:42;;;;;;;1999.90;999.90;;;;;;;1.08;52.65;100979.78;5024022;28;99007;-75
2022/02/24 07:36:12;;;;;;;1999.90;999.90;;;;;;;1.13;52.65;100982.69;5024581;28;97323;-75
2022/02/24 07:38:41;;;;;;;1999.90;999.90;;;;;;;1.18;52.40;100969.03;5007785;28;99188;-73
2022/02/24 07:41:08;;;;;;;1999.90;999.90;;;;;;;1.23;51.81;100969.34;5026474;27;97043;-76
2022/02/24 07:43:36;;;;;;;1999.90;999.90;;;;;;;1.61;51.44;100969.94;5022814;27;97356;-74
2022/02/24 07:46:04;;;;;;;1999.90;999.90;;;;;;;1.49;51.44;100958.69;5025359;27;96922;-75
2022/02/24 07:48:32;;;;;;;1999.90;999.90;;;;;;;1.50;51.72;100957.91;5025887;27;99510;-73
2022/02/24 07:51:01;;;;;;;1999.90;999.90;;;;;;;1.53;52.09;100954.53;5008221;28;97737;-74
2022/02/24 07:53:34;;;;;;;1999.90;999.90;;;;;;;1.56;51.26;100955.63;5007737;28;97409;-75
2022/02/24 07:56:02;;;;;;;1999.90;999.90;;;;;;;1.58;52.07;100946.13;5025662;28;97508;-74
2022/02/24 07:58:29;;;;;;;1999.90;999.90;;;;;;;1.61;51.57;100956.81;5025489;27;97915;-76
2022/02/24 08:00:57;;;;;;;1999.90;999.90;;;;;;;1.94;50.67;100947.41;5024361;27;97644;-75
2022/02/24 08:03:25;;;;;;;1999.90;999.90;;;;;;;1.81;51.51;100948.41;5024417;27;98072;-77
2022/02/24 08:05:54;;;;;;;1999.90;999.90;;;;;;;1.84;51.85;100953.81;5025217;28;98290;-74
2022/02/24 08:08:23;;;;;;;1999.90;999.90;;;;;;;1.87;52.17;100947.88;5022257;27;98101;-75
2022/02/24 08:10:50;;;;;;;1999.90;999.90;;;;;;;1.89;50.98;100952.38;5026371;28;96756;-76
2022/02/24 08:13:20;;;;;;;1999.90;999.90;;;;;;;1.89;51.96;100935.75;5026011;28;96815;-74
2022/02/24 08:15:48;;;;;;;1999.90;999.90;;;;;;;1.89;51.33;100939.25;5024369;28;96950;-75
2022/02/24 08:18:16;;;;;;;1999.90;999.90;;;;;;;1.91;51.78;100945.50;5006662;28;100679;-75
2022/02/24 08:20:44;;;;;;;1999.90;999.90;;;;;;;1.93;52.08;100935.09;5025783;27;97614;-74
2022/02/24 08:23:12;;;;;;;1999.90;999.90;;;;;;;1.92;51.87;100931.56;5027300;27;97468;-75
2022/02/24 08:25:40;;;;;;;1999.90;999.90;;;;;;;1.93;51.47;100935.09;5025379;27;97904;-74
2022/02/24 08:28:08;;;;;;;1999.90;999.90;;;;;;;1.93;51.44;100925.50;5024942;28;99575;-73
2022/02/24 08:30:36;;;;;;;1999.90;999.90;;;;;;;1.97;51.32;100923.94;5024788;28;97614;-75
2022/02/24 08:33:05;;;;;;;1999.90;999.90;;;;;;;2.29;50.59;100908.38;5022718;27;96782;-74
2022/02/24 08:35:33;;;;;;;1999.90;999.90;;;;;;;2.13;51.29;100909.22;5025450;28;97337;-76
2022/02/24 08:38:01;;;;;;;1999.90;999.90;;;;;;;2.09;51.18;100901.97;5023304;28;99150;-73
2022/02/24 08:40:29;;;;;;;1999.90;999.90;;;;;;;2.08;52.06;100897.50;5025366;27;97609;-74
2022/02/24 08:42:59;;;;;;;1999.90;999.90;;;;;;;2.10;51.00;100882.78;5024221;28;97051;-75
2022/02/24 08:45:28;;;;;;;1999.90;999.90;;;;;;;2.12;51.34;100885.50;5024697;27;96820;-75
2022/02/24 08:47:56;;;;;;;1999.90;999.90;;;;;;;2.12;51.71;100878.53;5023137;28;98539;-74
2022/02/24 08:50:23;;;;;;;1999.90;999.90;;;;;;;2.15;51.77;100875.16;5025581;27;100303;-75
2022/02/24 08:53:02;;;;;;;1999.90;999.90;;;;;;;2.17;51.33;100865.66;5026830;27;97042;-73
2022/02/24 08:55:32;;;;;;;1999.90;999.90;;;;;;;2.18;51.45;100857.88;5028760;28;96998;-75
2022/02/24 08:58:02;;;;;;;1999.90;999.90;;;;;;;2.24;51.52;100865.19;5027824;28;99651;-74
2022/02/24 09:00:32;;;;;;;1999.90;999.90;;;;;;;2.55;51.16;100846.75;5025496;27;100448;-74
2022/02/24 09:03:00;;;;;;;1999.90;999.90;;;;;;;2.45;51.21;100847.09;5028840;28;98807;-75
2022/02/24 09:05:28;;;;;;;1999.90;999.90;;;;;;;2.46;51.17;100848.88;5027607;28;97048;-73
2022/02/24 09:07:56;;;;;;;1999.90;999.90;;;;;;;2.48;51.17;100832.41;5027890;28;98085;-73
2022/02/24 09:10:29;;;;;;;1999.90;999.90;;;;;;;2.48;51.42;100831.47;5027338;28;99855;-74
2022/02/24 09:12:57;;;;;;;1999.90;999.90;;;;;;;2.50;51.65;100822.88;5027456;27;97030;-74
2022/02/24 09:15:26;;;;;;;1999.90;999.90;;;;;;;2.51;51.61;100815.91;5027480;28;97801;-75
2022/02/24 09:17:54;;;;;;;1999.90;999.90;;;;;;;2.53;51.26;100812.53;5026669;27;97629;-75
2022/02/24 09:20:22;;;;;;;1999.90;999.90;;;;;;;2.56;51.33;100815.34;5028055;28;97865;-74
2022/02/24 09:22:50;;;;;;;1999.90;999.90;;;;;;;2.61;51.43;100807.69;5010232;28;96889;-75
2022/02/24 09:25:18;;;;;;;1999.90;999.90;;;;;;;2.64;50.88;100802.59;5028601;27;96835;-74
2022/02/24 09:27:46;;;;;;;1999.90;999.90;;;;;;;2.66;51.01;100803.56;5027685;28;100191;-76
2022/02/24 09:30:15;;;;;;;1999.90;999.90;;;;;;;2.69;51.02;100786.25;5027148;28;98359;-74
2022/02/24 09:32:44;;;;;;;1999.90;999.90;;;;;;;2.73;50.92;100785.59;5028509;27;97945;-75
2022/02/24 09:35:13;;;;;;;1999.90;999.90;;;;;;;2.76;50.79;100777.88;5027493;28;97674;-75
2022/02/24 09:37:41;;;;;;;1999.90;999.90;;;;;;;2.80;50.76;100769.31;5026058;28;98786;-75
2022/02/24 09:40:11;;;;;;;1999.90;999.90;;;;;;;2.82;50.36;100764.16;5026630;28;100395;-74
2022/02/24 09:42:59;;;;;;;1999.90;999.90;;;;;;;2.78;50.82;100759.56;5026902;27;98023;-75
2022/02/24 09:45:26;;;;;;;1999.90;999.90;;;;;;;2.77;51.45;100752.50;5025402;28;96996;-74
2022/02/24 09:48:00;;;;;;;1999.90;999.90;;;;;;;2.80;50.76;100752.66;5027949;28;100189;-74
2022/02/24 09:50:29;;;;;;;1999.90;999.90;;;;;;;2.86;50.78;100756.50;5027184;28;98247;-73
2022/02/24 09:52:57;;;;;;;1999.90;999.90;;;;;;;2.89;50.93;100754.03;5027221;28;96796;-74
2022/02/24 09:55:25;;;;;;;1999.90;999.90;;;;;;;2.92;51.31;100753.28;5027824;27;97281;-76
2022/02/24 09:57:53;;;;;;;1999.90;999.90;;;;;;;2.92;51.22;100753.28;5027334;28;96835;-76
2022/02/24 10:00:21;;;;;;;1999.90;999.90;;;;;;;2.94;51.30;100752.56;5025736;27;99183;-76
2022/02/24 10:02:49;;;;;;;1999.90;999.90;;;;;;;2.98;50.58;100749.22;5027300;27;96946;-75
2022/02/24 10:05:18;;;;;;;1999.90;999.90;;;;;;;3.27;50.24;100734.03;5026544;28;97104;-74
2022/02/24 10:07:49;;;;;;;1999.90;999.90;;;;;;;3.16;50.61;100738.75;5042283;27;100318;-75
2022/02/24 10:10:28;;;;;;;1999.90;999.90;;;;;;;3.13;51.08;100726.34;5027146;28;97742;-76
2022/02/24 10:13:00;;;;;;;1999.90;999.90;;;;;;;3.16;50.81;100729.16;5027353;27;97038;-72
2022/02/24 10:15:29;;;;;;;1999.90;999.90;;;;;;;3.21;50.72;100734.63;5026905;27;96881;-75
2022/02/24 10:18:11;;;;;;;1999.90;999.90;;;;;;;3.20;50.52;100722.31;5027338;28;99257;-74
2022/02/24 10:20:45;;;;;;;1999.90;999.90;;;;;;;3.22;50.91;100723.28;5025194;28;99332;-72
2022/02/24 10:23:15;;;;;;;1999.90;999.90;;;;;;;3.24;50.65;100718.97;5024803;28;96883;-74
2022/02/24 10:25:45;;;;;;;1999.90;999.90;;;;;;;3.26;50.89;100711.19;5026108;28;97154;-72
2022/02/24 10:28:31;;;;;;;1999.90;999.90;;;;;;;3.27;50.99;100716.53;5027100;28;97432;-74
2022/02/24 10:31:04;;;;;;;1999.90;999.90;;;;;;;3.30;50.54;100707.88;5026893;28;100771;-74
2022/02/24 10:33:33;;;;;;;1999.90;999.90;;;;;;;3.29;50.52;100712.25;5025719;27;97316;-74
2022/02/24 10:36:14;;;;;;;1999.90;999.90;;;;;;;3.29;50.68;100698.19;5026432;28;97330;-74
2022/02/24 10:38:43;;;;;;;1999.90;999.90;;;;;;;3.32;50.76;100693.06;5027704;28;97925;-73
2022/02/24 10:41:11;;;;;;;1999.90;999.90;;;;;;;3.33;50.59;100684.38;5026672;28;97642;-75
2022/02/24 10:43:40;;;;;;;1999.90;999.90;;;;;;;3.34;50.62;100686.16;5026280;27;97846;-74
2022/02/24 10:46:11;;;;;;;1999.90;999.90;;;;;;;3.36;50.68;100684.50;5026362;27;96872;-73
2022/02/24 10:48:50;;;;;;;1999.90;999.90;;;;;;;3.57;49.97;100670.66;5025259;28;98887;-73
2022/02/24 10:51:28;;;;;;;1999.90;999.90;;;;;;;3.48;50.38;100671.97;5008351;28;100435;-74
2022/02/24 10:54:01;;;;;;;1999.90;999.90;;;;;;;3.46;50.61;100671.88;5028378;28;97544;-75
2022/02/24 10:56:29;;;;;;;1999.90;999.90;;;;;;;3.39;50.55;100659.25;5024124;28;96977;-74
2022/02/24 10:58:56;;;;;;;1999.90;999.90;;;;;;;3.39;50.63;100659.25;5026781;28;99106;-74